Time;durP1;ratioP1;P1;durP2;ratioP2;P2;SDS_P1;SDS_P2;PMS_P1;PMS_P2;Temp;Humidity;BMP_temperature;BMP_pressure;BME280_temperature;BME280_humidity;BME280_pressure;Samples;Min_cycle;Max_cycle;Signal;HPM_P1;HPM_P2
2023/06/13 00:01:22;;;;;;;35.55;17.48;;;;;;;;;;5075650;28;20024;-82
2023/06/13 00:03:48;;;;;;;33.10;17.00;;;;;;;;;;5053850;28;20024;-82
2023/06/13 00:06:15;;;;;;;32.92;16.92;;;;;;;;;;5055066;28;20431;-82
2023/06/13 00:08:44;;;;;;;37.63;19.23;;;;;;;;;;5037769;28;20037;-81
2023/06/13 00:11:10;;;;;;;42.25;19.52;;;;;;;;;;5038140;28;20087;-82
2023/06/13 00:13:36;;;;;;;41.70;20.52;;;;;;;;;;5037560;28;20025;-82
2023/06/13 00:16:02;;;;;;;44.05;20.48;;;;;;;;;;5037713;28;20074;-81
2023/06/13 00:18:30;;;;;;;43.75;20.20;;;;;;;;;;5037364;28;20033;-81
2023/06/13 00:20:58;;;;;;;46.20;21.73;;;;;;;;;;5037596;28;20032;-83
2023/06/13 00:23:24;;;;;;;46.92;22.10;;;;;;;;;;5037733;28;20027;-82
2023/06/13 00:25:49;;;;;;;44.28;20.38;;;;;;;;;;5037153;28;20033;-81
2023/06/13 00:28:15;;;;;;;47.22;21.10;;;;;;;;;;5037773;28;20072;-82
2023/06/13 00:30:40;;;;;;;51.67;22.48;;;;;;;;;;5070459;28;20056;-82
2023/06/13 00:33:06;;;;;;;48.03;22.27;;;;;;;;;;5020838;28;20036;-81
2023/06/13 00:35:31;;;;;;;48.72;22.55;;;;;;;;;;5053966;28;20520;-80
2023/06/13 00:37:57;;;;;;;51.80;22.67;;;;;;;;;;5037007;28;20017;-82
2023/06/13 00:40:23;;;;;;;55.15;24.88;;;;;;;;;;5054860;28;20025;-81
2023/06/13 00:42:52;;;;;;;54.22;24.00;;;;;;;;;;5037045;28;20025;-82
2023/06/13 00:45:23;;;;;;;55.15;24.42;;;;;;;;;;5037223;28;20521;-81
2023/06/13 00:47:58;;;;;;;55.38;23.45;;;;;;;;;;5054437;28;20064;-81
2023/06/13 00:50:28;;;;;;;51.40;24.02;;;;;;;;;;5020720;28;20027;-82
2023/06/13 00:52:54;;;;;;;;;;;;;;;;;;5037546;28;20044;-82
2023/06/13 00:55:21;;;;;;;47.45;21.33;;;;;;;;;;5053851;28;20302;-81
2023/06/13 00:57:48;;;;;;;55.80;22.02;;;;;;;;;;5037063;28;20021;-81
2023/06/13 01:00:14;;;;;;;54.22;21.95;;;;;;;;;;5053202;28;20029;-81
2023/06/13 01:02:44;;;;;;;44.78;20.52;;;;;;;;;;5054126;28;20123;-81
2023/06/13 01:05:11;;;;;;;50.17;22.45;;;;;;;;;;5035108;28;20036;-81
2023/06/13 01:07:39;;;;;;;46.97;21.23;;;;;;;;;;5054138;28;20385;-82
2023/06/13 01:10:06;;;;;;;43.47;22.20;;;;;;;;;;5036788;28;20025;-81
2023/06/13 01:12:51;;;;;;;47.25;20.90;;;;;;;;;;5036842;28;20166;-83
2023/06/13 01:15:17;;;;;;;44.15;20.13;;;;;;;;;;5037008;28;20447;-80
2023/06/13 01:17:49;;;;;;;39.70;19.08;;;;;;;;;;5036380;28;20112;-80
2023/06/13 01:20:16;;;;;;;37.33;18.65;;;;;;;;;;5004848;28;20090;-80
2023/06/13 01:23:21;;;;;;;34.47;17.80;;;;;;;;;;5020281;28;20054;-80
2023/06/13 01:26:04;;;;;;;38.33;17.10;;;;;;;;;;5014606;28;20041;-81
2023/06/13 01:28:33;;;;;;;34.35;17.10;;;;;;;;;;5021569;28;20033;-80
2023/06/13 01:31:00;;;;;;;38.10;16.00;;;;;;;;;;5020414;28;20036;-80
2023/06/13 01:33:26;;;;;;;36.40;15.77;;;;;;;;;;5019527;28;20086;-81
2023/06/13 01:35:51;;;;;;;26.55;13.45;;;;;;;;;;5052809;28;20124;-79
2023/06/13 01:38:17;;;;;;;29.35;14.30;;;;;;;;;;5036195;28;20381;-80
2023/06/13 01:40:42;;;;;;;28.15;13.77;;;;;;;;;;5036102;28;20025;-81
2023/06/13 01:43:08;;;;;;;28.15;12.27;;;;;;;;;;5019557;28;20417;-80
2023/06/13 01:45:33;;;;;;;23.25;12.60;;;;;;;;;;5035567;28;20037;-79
2023/06/13 01:48:30;;;;;;;30.17;12.45;;;;;;;;;;5053550;28;20092;-81
2023/06/13 01:51:11;;;;;;;24.50;11.55;;;;;;;;;;5031477;28;20065;-81
2023/06/13 01:53:52;;;;;;;20.08;10.85;;;;;;;;;;5053742;28;20111;-79
2023/06/13 01:56:18;;;;;;;20.42;9.73;;;;;;;;;;5020469;28;20036;-80
2023/06/13 01:58:52;;;;;;;20.15;10.27;;;;;;;;;;5035962;28;20032;-80
2023/06/13 02:01:19;;;;;;;24.42;10.55;;;;;;;;;;5003826;28;20028;-79
2023/06/13 02:03:44;;;;;;;23.02;8.68;;;;;;;;;;5019753;28;20032;-80
2023/06/13 02:06:10;;;;;;;16.05;8.98;;;;;;;;;;5043010;28;20025;-79
2023/06/13 02:08:35;;;;;;;16.77;8.38;;;;;;;;;;4997801;28;20092;-79
2023/06/13 02:11:01;;;;;;;18.55;8.52;;;;;;;;;;5029001;28;20116;-80
2023/06/13 02:13:26;;;;;;;20.58;8.65;;;;;;;;;;5029347;28;20030;-80
2023/06/13 02:15:52;;;;;;;16.67;8.00;;;;;;;;;;5013431;28;20125;-79
2023/06/13 02:18:17;;;;;;;17.65;8.98;;;;;;;;;;4996453;28;20528;-80
2023/06/13 02:20:43;;;;;;;14.10;7.28;;;;;;;;;;5028975;28;20042;-81
2023/06/13 02:23:09;;;;;;;13.20;7.90;;;;;;;;;;5028895;28;20460;-80
2023/06/13 02:25:34;;;;;;;17.63;7.03;;;;;;;;;;4995964;28;20109;-80
2023/06/13 02:28:00;;;;;;;15.10;7.18;;;;;;;;;;5013592;28;20371;-81
2023/06/13 02:30:25;;;;;;;13.10;7.43;;;;;;;;;;5012463;28;20455;-80
2023/06/13 02:32:52;;;;;;;14.82;8.00;;;;;;;;;;5013561;28;20364;-79
2023/06/13 02:35:22;;;;;;;14.02;7.32;;;;;;;;;;4996074;28;20058;-79
2023/06/13 02:37:48;;;;;;;12.48;7.10;;;;;;;;;;5013789;28;20410;-80
2023/06/13 02:40:14;;;;;;;14.65;7.32;;;;;;;;;;4995763;28;20033;-81
2023/06/13 02:42:40;;;;;;;16.65;7.88;;;;;;;;;;5013427;28;20124;-78
2023/06/13 02:45:06;;;;;;;15.68;8.13;;;;;;;;;;5013186;28;20115;-80
2023/06/13 02:47:31;;;;;;;14.57;7.38;;;;;;;;;;5028669;28;20329;-79
2023/06/13 02:49:56;;;;;;;15.48;7.82;;;;;;;;;;5013687;28;20030;-81
2023/06/13 02:52:23;;;;;;;20.75;8.30;;;;;;;;;;5013555;28;20510;-81
2023/06/13 02:54:49;;;;;;;20.73;7.57;;;;;;;;;;5013520;28;20399;-81
2023/06/13 02:57:14;;;;;;;19.73;8.60;;;;;;;;;;5028497;28;20026;-80
2023/06/13 02:59:42;;;;;;;16.13;8.30;;;;;;;;;;5014222;28;20033;-80
2023/06/13 03:02:07;;;;;;;13.10;7.75;;;;;;;;;;4982831;28;20046;-80
2023/06/13 03:04:33;;;;;;;14.35;7.32;;;;;;;;;;5015704;28;20466;-80
2023/06/13 03:07:00;;;;;;;21.45;7.93;;;;;;;;;;5021429;28;20441;-80
2023/06/13 03:09:25;;;;;;;16.15;7.90;;;;;;;;;;5019064;28;20033;-80
2023/06/13 03:11:50;;;;;;;17.65;7.28;;;;;;;;;;5018812;28;20025;-81
2023/06/13 03:14:16;;;;;;;14.90;8.20;;;;;;;;;;5036221;28;20040;-80
2023/06/13 03:16:42;;;;;;;14.43;7.60;;;;;;;;;;5019000;28;20359;-81
2023/06/13 03:19:08;;;;;;;15.18;7.78;;;;;;;;;;5018913;28;20021;-80
2023/06/13 03:21:33;;;;;;;12.70;7.72;;;;;;;;;;5002218;28;20037;-80
2023/06/13 03:23:59;;;;;;;20.17;7.95;;;;;;;;;;5018390;28;20029;-80
2023/06/13 03:26:24;;;;;;;13.93;6.88;;;;;;;;;;5018839;28;20058;-80
2023/06/13 03:28:49;;;;;;;16.30;7.15;;;;;;;;;;5018377;28;20120;-79
2023/06/13 03:31:16;;;;;;;18.52;7.70;;;;;;;;;;5018357;28;20032;-79
2023/06/13 03:33:41;;;;;;;14.65;7.47;;;;;;;;;;5001827;28;20031;-79
2023/06/13 03:36:06;;;;;;;18.63;7.45;;;;;;;;;;5033394;28;20451;-79
2023/06/13 03:38:32;;;;;;;14.80;7.47;;;;;;;;;;5035490;28;20424;-80
2023/06/13 03:40:57;;;;;;;17.52;7.65;;;;;;;;;;5034748;28;20037;-79
2023/06/13 03:43:26;;;;;;;15.20;7.53;;;;;;;;;;5017872;28;20041;-80
2023/06/13 03:45:52;;;;;;;14.82;8.20;;;;;;;;;;5050659;28;20029;-80
2023/06/13 03:48:18;;;;;;;13.07;7.50;;;;;;;;;;5051080;28;20174;-80
2023/06/13 03:50:43;;;;;;;14.32;6.80;;;;;;;;;;5050887;28;20044;-79
2023/06/13 03:53:08;;;;;;;16.77;6.68;;;;;;;;;;5035477;28;20531;-80
2023/06/13 03:55:34;;;;;;;9.75;6.05;;;;;;;;;;5050847;28;20052;-80
2023/06/13 03:57:59;;;;;;;9.88;6.28;;;;;;;;;;5017831;28;20032;-79
2023/06/13 04:00:25;;;;;;;13.00;6.13;;;;;;;;;;5050763;28;20371;-81
2023/06/13 04:02:52;;;;;;;10.68;6.15;;;;;;;;;;5050772;28;20208;-80
2023/06/13 04:05:18;;;;;;;11.68;6.50;;;;;;;;;;5017785;28;20083;-80
2023/06/13 04:07:44;;;;;;;11.50;6.07;;;;;;;;;;5006732;28;20533;-79
2023/06/13 04:10:10;;;;;;;24.52;6.40;;;;;;;;;;5014303;28;20033;-80
2023/06/13 04:12:36;;;;;;;12.23;5.78;;;;;;;;;;4997407;28;20037;-79
2023/06/13 04:15:04;;;;;;;16.58;6.25;;;;;;;;;;4997895;28;20030;-79
2023/06/13 04:17:32;;;;;;;13.50;6.40;;;;;;;;;;5015631;28;20045;-80
2023/06/13 04:19:57;;;;;;;11.45;6.20;;;;;;;;;;4997845;28;20040;-81
2023/06/13 04:22:23;;;;;;;10.50;6.50;;;;;;;;;;5013853;28;20067;-80
2023/06/13 04:24:48;;;;;;;10.07;6.28;;;;;;;;;;4997663;28;20130;-80
2023/06/13 04:27:19;;;;;;;9.30;5.80;;;;;;;;;;4981069;28;20345;-79
2023/06/13 04:29:44;;;;;;;19.05;5.65;;;;;;;;;;4982222;28;20475;-81
2023/06/13 04:32:17;;;;;;;10.23;6.10;;;;;;;;;;4997599;28;20065;-81
2023/06/13 04:34:52;;;;;;;13.35;5.65;;;;;;;;;;4998344;28;20045;-80
2023/06/13 04:37:25;;;;;;;12.02;5.57;;;;;;;;;;4998915;28;20033;-80
2023/06/13 04:39:53;;;;;;;12.98;5.82;;;;;;;;;;5003409;28;20034;-84
2023/06/13 04:42:28;;;;;;;14.65;6.38;;;;;;;;;;5030123;28;20041;-84
2023/06/13 04:44:58;;;;;;;9.10;5.57;;;;;;;;;;5029359;28;20511;-87
2023/06/13 04:47:24;;;;;;;11.88;6.55;;;;;;;;;;5015333;28;20025;-87
2023/06/13 04:49:58;;;;;;;9.48;5.60;;;;;;;;;;5046743;28;20030;-86
2023/06/13 04:52:27;;;;;;;10.98;5.63;;;;;;;;;;5014551;28;20030;-85
2023/06/13 04:54:54;;;;;;;10.68;5.72;;;;;;;;;;5046635;28;20466;-87
2023/06/13 04:57:20;;;;;;;16.75;7.18;;;;;;;;;;5029692;28;20029;-88
2023/06/13 04:59:46;;;;;;;11.18;5.78;;;;;;;;;;4997379;28;20029;-85
2023/06/13 05:02:12;;;;;;;9.90;5.45;;;;;;;;;;5029725;28;20040;-86
2023/06/13 05:04:38;;;;;;;11.50;5.32;;;;;;;;;;5030757;28;20021;-89
2023/06/13 05:07:06;;;;;;;12.10;5.90;;;;;;;;;;5051995;28;20392;-88
2023/06/13 05:09:32;;;;;;;12.27;5.18;;;;;;;;;;5033421;28;20053;-87
2023/06/13 05:11:57;;;;;;;10.38;5.32;;;;;;;;;;5050220;28;20080;-88
2023/06/13 05:14:22;;;;;;;9.60;5.43;;;;;;;;;;5049989;28;20045;-88
2023/06/13 05:16:48;;;;;;;10.63;5.35;;;;;;;;;;5050682;28;20026;-89
2023/06/13 05:19:13;;;;;;;11.88;5.68;;;;;;;;;;5061716;28;20078;-86
2023/06/13 05:21:39;;;;;;;9.95;5.75;;;;;;;;;;5037635;28;20029;-92
2023/06/13 05:24:07;;;;;;;11.85;5.68;;;;;;;;;;5040754;28;20079;-93
2023/06/13 05:26:33;;;;;;;11.18;5.15;;;;;;;;;;5045778;28;20033;-90
2023/06/13 05:28:58;;;;;;;12.93;5.63;;;;;;;;;;5019487;28;20032;-89
2023/06/13 05:31:24;;;;;;;11.75;6.20;;;;;;;;;;5033164;28;20030;-88
2023/06/13 05:33:49;;;;;;;16.50;5.85;;;;;;;;;;5014945;28;20014;-89
2023/06/13 05:36:15;;;;;;;14.02;5.78;;;;;;;;;;5014768;28;20164;-90
2023/06/13 05:38:40;;;;;;;10.43;5.05;;;;;;;;;;5014844;28;20032;-87
2023/06/13 05:41:06;;;;;;;11.35;6.03;;;;;;;;;;5014191;28;20411;-88
2023/06/13 05:43:31;;;;;;;8.32;5.10;;;;;;;;;;5033703;28;20347;-88
2023/06/13 05:45:56;;;;;;;8.70;5.70;;;;;;;;;;5037401;28;20021;-89
2023/06/13 05:48:22;;;;;;;11.50;6.28;;;;;;;;;;4999850;28;20394;-89
2023/06/13 05:50:47;;;;;;;11.73;5.60;;;;;;;;;;5032474;28;20140;-92
2023/06/13 05:53:13;;;;;;;11.65;5.20;;;;;;;;;;5015304;28;20033;-92
2023/06/13 05:55:38;;;;;;;10.77;5.13;;;;;;;;;;5032567;28;20037;-90
2023/06/13 05:58:04;;;;;;;11.55;5.45;;;;;;;;;;5038772;28;20026;-87
2023/06/13 06:00:29;;;;;;;9.80;5.25;;;;;;;;;;5042837;28;20029;-88
2023/06/13 06:02:55;;;;;;;11.02;5.38;;;;;;;;;;5019502;28;20021;-89
2023/06/13 06:05:21;;;;;;;12.05;5.20;;;;;;;;;;5033851;28;20022;-88
2023/06/13 06:07:47;;;;;;;9.27;5.97;;;;;;;;;;5033344;28;20467;-88
2023/06/13 06:10:12;;;;;;;11.35;5.65;;;;;;;;;;4999706;28;20029;-89
2023/06/13 06:12:38;;;;;;;9.70;5.68;;;;;;;;;;5032612;28;20025;-88
2023/06/13 06:15:04;;;;;;;13.25;5.47;;;;;;;;;;5048982;28;20026;-89
2023/06/13 06:17:29;;;;;;;15.30;5.43;;;;;;;;;;5033256;28;20026;-87
2023/06/13 06:19:55;;;;;;;9.43;5.55;;;;;;;;;;5033805;28;20075;-89
2023/06/13 06:22:20;;;;;;;9.90;5.70;;;;;;;;;;5032281;28;20113;-89
2023/06/13 06:24:46;;;;;;;8.43;5.63;;;;;;;;;;5032627;28;20037;-89
2023/06/13 06:27:12;;;;;;;12.18;5.20;;;;;;;;;;5049519;28;20049;-89
2023/06/13 06:29:38;;;;;;;10.20;5.90;;;;;;;;;;5033824;28;20452;-90
2023/06/13 06:32:05;;;;;;;15.13;5.72;;;;;;;;;;5032379;28;20025;-90
2023/06/13 06:34:30;;;;;;;17.23;5.43;;;;;;;;;;5035732;28;20017;-88
2023/06/13 06:36:55;;;;;;;15.27;5.60;;;;;;;;;;5052405;28;20544;-89
2023/06/13 06:39:22;;;;;;;10.38;5.30;;;;;;;;;;5035981;28;20030;-90
2023/06/13 06:41:47;;;;;;;13.55;6.35;;;;;;;;;;5035837;28;20033;-89
2023/06/13 06:44:13;;;;;;;9.27;5.40;;;;;;;;;;5036653;28;20051;-88
2023/06/13 06:46:38;;;;;;;8.27;5.50;;;;;;;;;;5019808;28;20495;-88
2023/06/13 06:49:04;;;;;;;8.75;5.32;;;;;;;;;;5035970;28;20026;-89
2023/06/13 06:51:29;;;;;;;8.98;5.72;;;;;;;;;;5035652;28;20026;-89
2023/06/13 06:53:56;;;;;;;10.40;5.47;;;;;;;;;;5019736;28;20025;-88
2023/06/13 06:56:22;;;;;;;11.35;5.45;;;;;;;;;;5019858;28;20466;-88
2023/06/13 06:58:47;;;;;;;8.20;5.32;;;;;;;;;;5036950;28;20025;-82
2023/06/13 07:01:14;;;;;;;7.85;5.30;;;;;;;;;;5035642;28;20467;-83
2023/06/13 07:03:40;;;;;;;8.73;5.32;;;;;;;;;;5019635;28;20422;-82
2023/06/13 07:06:06;;;;;;;11.95;5.28;;;;;;;;;;5035208;28;20030;-82
2023/06/13 07:08:32;;;;;;;11.57;5.50;;;;;;;;;;5045008;28;20090;-83
2023/06/13 07:10:57;;;;;;;19.75;5.70;;;;;;;;;;5064253;28;20463;-82
2023/06/13 07:13:23;;;;;;;10.15;6.18;;;;;;;;;;5066076;28;20035;-86
2023/06/13 07:15:48;;;;;;;14.15;6.55;;;;;;;;;;5046972;28;20037;-88
2023/06/13 07:18:14;;;;;;;13.45;5.88;;;;;;;;;;5059766;28;20108;-88
2023/06/13 07:20:40;;;;;;;13.35;6.13;;;;;;;;;;5044344;28;20028;-87
2023/06/13 07:23:06;;;;;;;9.75;6.45;;;;;;;;;;5042693;28;20419;-87
2023/06/13 07:25:32;;;;;;;11.60;6.10;;;;;;;;;;5071168;28;20125;-87
2023/06/13 07:27:58;;;;;;;13.38;6.15;;;;;;;;;;5087667;28;20040;-87
2023/06/13 07:30:24;;;;;;;16.08;6.85;;;;;;;;;;5055592;28;20025;-87
2023/06/13 07:32:50;;;;;;;33.50;7.30;;;;;;;;;;5055622;28;20372;-89
2023/06/13 07:35:16;;;;;;;12.18;7.18;;;;;;;;;;5025769;28;20029;-86
2023/06/13 07:37:42;;;;;;;17.98;7.40;;;;;;;;;;5054169;28;20028;-89
2023/06/13 07:40:09;;;;;;;11.85;7.18;;;;;;;;;;5053509;28;20044;-88
2023/06/13 07:42:35;;;;;;;12.70;7.30;;;;;;;;;;5054093;28;20052;-87
2023/06/13 07:45:00;;;;;;;13.95;7.18;;;;;;;;;;5053878;28;20297;-89
2023/06/13 07:47:26;;;;;;;15.75;6.75;;;;;;;;;;5036409;28;20032;-87
2023/06/13 07:49:51;;;;;;;14.25;7.05;;;;;;;;;;5036741;28;20084;-88
2023/06/13 07:52:17;;;;;;;15.35;7.25;;;;;;;;;;5036729;28;20045;-88
2023/06/13 07:54:42;;;;;;;11.23;7.50;;;;;;;;;;5036485;28;20032;-86
2023/06/13 07:57:08;;;;;;;13.55;7.30;;;;;;;;;;5053238;28;20041;-89
2023/06/13 07:59:33;;;;;;;11.52;6.80;;;;;;;;;;5053066;28;20032;-89
2023/06/13 08:01:58;;;;;;;11.93;7.03;;;;;;;;;;5054140;28;20036;-89
2023/06/13 08:04:25;;;;;;;12.15;7.07;;;;;;;;;;5038365;28;20095;-90
2023/06/13 08:06:50;;;;;;;16.17;8.18;;;;;;;;;;5036487;28;20076;-88
2023/06/13 08:09:16;;;;;;;16.90;8.57;;;;;;;;;;5037951;28;20064;-88
2023/06/13 08:11:41;;;;;;;14.57;7.97;;;;;;;;;;5051561;28;20029;-89
2023/06/13 08:14:08;;;;;;;23.48;8.70;;;;;;;;;;5072228;28;20033;-89
2023/06/13 08:16:36;;;;;;;15.45;7.95;;;;;;;;;;5055492;28;20025;-90
2023/06/13 08:19:01;;;;;;;17.48;7.60;;;;;;;;;;5040050;28;20132;-90
2023/06/13 08:21:27;;;;;;;13.60;6.88;;;;;;;;;;5039228;28;20514;-88
2023/06/13 08:23:52;;;;;;;11.63;7.30;;;;;;;;;;5057064;28;20375;-88
2023/06/13 08:26:18;;;;;;;11.75;6.97;;;;;;;;;;5059236;28;20033;-88
2023/06/13 08:28:43;;;;;;;12.73;6.75;;;;;;;;;;5058343;28;20036;-87
2023/06/13 08:31:09;;;;;;;13.32;6.72;;;;;;;;;;5060792;28;20032;-89
2023/06/13 08:33:36;;;;;;;9.98;6.50;;;;;;;;;;5057251;28;20017;-89
2023/06/13 08:36:02;;;;;;;10.80;6.60;;;;;;;;;;5058506;28;20029;-88
2023/06/13 08:38:27;;;;;;;12.05;6.30;;;;;;;;;;5058252;28;20519;-89
2023/06/13 08:40:52;;;;;;;12.10;6.70;;;;;;;;;;5055101;28;20033;-88
2023/06/13 08:43:18;;;;;;;11.95;6.88;;;;;;;;;;5038228;28;20442;-89
2023/06/13 08:45:43;;;;;;;17.65;6.88;;;;;;;;;;5056726;28;20021;-91
2023/06/13 08:48:09;;;;;;;10.98;7.10;;;;;;;;;;5038673;28;20424;-88
2023/06/13 08:50:34;;;;;;;10.15;7.18;;;;;;;;;;5054673;28;20028;-89
2023/06/13 08:53:00;;;;;;;14.13;8.45;;;;;;;;;;5055842;28;20036;-90
2023/06/13 08:55:25;;;;;;;15.05;7.93;;;;;;;;;;5034033;28;20312;-87
2023/06/13 08:57:54;;;;;;;15.00;8.63;;;;;;;;;;5054182;28;20024;-86
2023/06/13 09:00:21;;;;;;;17.75;8.27;;;;;;;;;;5035744;28;20029;-89
2023/06/13 09:02:46;;;;;;;15.93;8.68;;;;;;;;;;5053935;28;20373;-90
2023/06/13 09:05:15;;;;;;;15.15;9.18;;;;;;;;;;5030480;28;20044;-88
2023/06/13 09:07:41;;;;;;;14.90;8.23;;;;;;;;;;5078060;28;20037;-89
2023/06/13 09:10:10;;;;;;;18.75;8.95;;;;;;;;;;5037013;28;20036;-90
2023/06/13 09:12:36;;;;;;;12.95;8.15;;;;;;;;;;5026704;28;20022;-89
2023/06/13 09:15:01;;;;;;;18.05;8.25;;;;;;;;;;5029098;28;20048;-89
2023/06/13 09:17:26;;;;;;;16.90;8.40;;;;;;;;;;4994973;28;20112;-89
2023/06/13 09:19:52;;;;;;;17.35;7.97;;;;;;;;;;5027276;28;20053;-89
2023/06/13 09:22:17;;;;;;;14.20;8.52;;;;;;;;;;5011661;28;20100;-88
2023/06/13 09:24:43;;;;;;;19.88;8.73;;;;;;;;;;5015492;28;20036;-89
2023/06/13 09:27:08;;;;;;;15.13;8.75;;;;;;;;;;4997174;28;20018;-90
2023/06/13 09:29:34;;;;;;;16.42;8.20;;;;;;;;;;5013770;28;20127;-91
2023/06/13 09:32:00;;;;;;;13.95;8.02;;;;;;;;;;5014375;28;20030;-90
2023/06/13 09:34:29;;;;;;;12.55;8.10;;;;;;;;;;5002314;28;20026;-90
2023/06/13 09:36:55;;;;;;;15.15;8.15;;;;;;;;;;4996857;28;20436;-88
2023/06/13 09:39:20;;;;;;;15.65;8.57;;;;;;;;;;5029840;28;20022;-88
2023/06/13 09:41:52;;;;;;;15.50;8.00;;;;;;;;;;5031899;28;20162;-90
2023/06/13 09:44:18;;;;;;;15.93;8.60;;;;;;;;;;4999170;28;20029;-89
2023/06/13 09:46:43;;;;;;;23.58;7.97;;;;;;;;;;5001483;28;20044;-88
2023/06/13 09:49:08;;;;;;;15.93;8.65;;;;;;;;;;5018655;28;20073;-89
2023/06/13 09:51:35;;;;;;;19.40;8.43;;;;;;;;;;5029105;28;20120;-88
2023/06/13 09:54:00;;;;;;;18.45;8.45;;;;;;;;;;5036319;28;20071;-89
2023/06/13 09:56:26;;;;;;;16.38;8.43;;;;;;;;;;5034222;28;20025;-88
2023/06/13 09:58:52;;;;;;;17.23;8.35;;;;;;;;;;5033652;28;20096;-90
2023/06/13 10:01:18;;;;;;;18.25;9.07;;;;;;;;;;5015294;28;20159;-89
2023/06/13 10:03:44;;;;;;;24.02;8.38;;;;;;;;;;5016628;28;20092;-89
2023/06/13 10:06:10;;;;;;;16.35;8.60;;;;;;;;;;5034674;28;20061;-89
2023/06/13 10:08:36;;;;;;;23.40;10.35;;;;;;;;;;5035751;28;20410;-88
2023/06/13 10:11:10;;;;;;;18.95;9.18;;;;;;;;;;5022424;28;20033;-90
2023/06/13 10:13:40;;;;;;;18.25;9.68;;;;;;;;;;5038352;28;20027;-89
2023/06/13 10:16:05;;;;;;;14.63;8.75;;;;;;;;;;5043556;28;20091;-87
2023/06/13 10:18:37;;;;;;;13.05;8.93;;;;;;;;;;5040248;28;20033;-88
2023/06/13 10:21:03;;;;;;;19.23;9.57;;;;;;;;;;5056410;28;20074;-90
2023/06/13 10:23:30;;;;;;;19.15;9.70;;;;;;;;;;5039035;28;20021;-89
2023/06/13 10:25:56;;;;;;;20.40;8.88;;;;;;;;;;5040627;28;20047;-88
2023/06/13 10:28:28;;;;;;;18.08;9.10;;;;;;;;;;5040411;28;20029;-90
2023/06/13 10:31:26;;;;;;;21.92;9.52;;;;;;;;;;5059150;28;20032;-91
2023/06/13 10:34:36;;;;;;;21.02;9.95;;;;;;;;;;5074559;28;20144;-89
2023/06/13 10:37:33;;;;;;;24.27;12.35;;;;;;;;;;5015544;28;20033;-90
2023/06/13 10:40:23;;;;;;;18.48;9.27;;;;;;;;;;5072807;28;20465;-89
2023/06/13 10:42:53;;;;;;;17.77;9.85;;;;;;;;;;5040951;28;20116;-88
2023/06/13 10:45:21;;;;;;;17.63;9.88;;;;;;;;;;5023313;28;20024;-89
2023/06/13 10:47:47;;;;;;;18.55;9.65;;;;;;;;;;5039550;28;20033;-89
2023/06/13 10:50:15;;;;;;;21.73;10.05;;;;;;;;;;5039230;28;20412;-90
2023/06/13 10:52:48;;;;;;;20.73;9.40;;;;;;;;;;5039076;28;20102;-90
2023/06/13 10:55:23;;;;;;;16.25;8.48;;;;;;;;;;5039208;28;20021;-90
2023/06/13 10:57:50;;;;;;;16.75;9.18;;;;;;;;;;5023284;28;20025;-90
2023/06/13 11:00:22;;;;;;;15.63;8.82;;;;;;;;;;5023809;28;20109;-92
2023/06/13 11:02:47;;;;;;;20.30;9.65;;;;;;;;;;5039180;28;20435;-90
2023/06/13 11:05:13;;;;;;;15.70;8.38;;;;;;;;;;5038780;28;20075;-91
2023/06/13 11:07:39;;;;;;;15.10;7.75;;;;;;;;;;5057007;28;20653;-91
2023/06/13 11:10:10;;;;;;;16.98;8.23;;;;;;;;;;5022350;28;20430;-89
2023/06/13 11:12:35;;;;;;;17.80;8.13;;;;;;;;;;5039037;28;20037;-89
2023/06/13 11:15:01;;;;;;;13.05;7.20;;;;;;;;;;5056700;28;20461;-90
2023/06/13 11:17:27;;;;;;;16.10;8.25;;;;;;;;;;5055086;28;20124;-90
2023/06/13 11:19:53;;;;;;;14.98;8.43;;;;;;;;;;5021692;28;20071;-91
2023/06/13 11:22:21;;;;;;;14.73;7.97;;;;;;;;;;5038403;28;20447;-89
2023/06/13 11:24:47;;;;;;;12.77;7.80;;;;;;;;;;5038957;28;20094;-90
2023/06/13 11:27:15;;;;;;;19.30;7.40;;;;;;;;;;5038196;28;20017;-91
2023/06/13 11:29:40;;;;;;;12.52;7.47;;;;;;;;;;5038962;28;20114;-89
2023/06/13 11:32:08;;;;;;;13.48;8.02;;;;;;;;;;5039342;28;20075;-90
2023/06/13 11:34:41;;;;;;;14.68;7.28;;;;;;;;;;5057366;28;20492;-90
2023/06/13 11:37:31;;;;;;;12.93;6.78;;;;;;;;;;5042264;28;20039;-91
2023/06/13 11:39:56;;;;;;;11.25;5.90;;;;;;;;;;5055946;28;20447;-90
2023/06/13 11:42:23;;;;;;;14.07;6.80;;;;;;;;;;5038153;28;20047;-92
2023/06/13 11:44:48;;;;;;;8.50;5.75;;;;;;;;;;5039158;28;20119;-89
2023/06/13 11:47:13;;;;;;;9.10;5.57;;;;;;;;;;5056368;28;20110;-88
2023/06/13 11:49:39;;;;;;;10.73;6.47;;;;;;;;;;5039507;28;20032;-88
2023/06/13 11:52:17;;;;;;;10.27;5.70;;;;;;;;;;5039713;28;20104;-89
2023/06/13 11:54:47;;;;;;;12.25;6.00;;;;;;;;;;5022719;28;20033;-89
2023/06/13 11:57:15;;;;;;;9.75;5.07;;;;;;;;;;5045120;28;20378;-89
2023/06/13 11:59:41;;;;;;;9.48;5.03;;;;;;;;;;5057262;28;20112;-89
2023/06/13 12:02:07;;;;;;;7.40;4.78;;;;;;;;;;5055401;28;20563;-83
2023/06/13 12:04:33;;;;;;;9.80;5.35;;;;;;;;;;5037856;28;20047;-83
2023/06/13 12:07:01;;;;;;;6.38;4.78;;;;;;;;;;5037299;28;20045;-82
2023/06/13 12:09:28;;;;;;;8.52;5.45;;;;;;;;;;5036584;28;20443;-83
2023/06/13 12:11:53;;;;;;;8.00;5.40;;;;;;;;;;5070654;28;20059;-82
2023/06/13 12:14:20;;;;;;;10.05;5.53;;;;;;;;;;5053901;28;20072;-83
2023/06/13 12:16:46;;;;;;;8.50;4.97;;;;;;;;;;5037402;28;20029;-82
2023/06/13 12:19:11;;;;;;;10.10;5.20;;;;;;;;;;5039504;28;20375;-82
2023/06/13 12:21:38;;;;;;;9.25;5.50;;;;;;;;;;5016871;28;20477;-82
2023/06/13 12:24:06;;;;;;;11.82;5.97;;;;;;;;;;5033373;28;20033;-81
2023/06/13 12:26:33;;;;;;;9.25;5.57;;;;;;;;;;5017593;28;20070;-82
2023/06/13 12:29:06;;;;;;;10.77;5.75;;;;;;;;;;5033900;28;20111;-83
2023/06/13 12:31:35;;;;;;;10.57;5.88;;;;;;;;;;5002407;28;20044;-82
2023/06/13 12:34:07;;;;;;;9.80;4.68;;;;;;;;;;5017565;28;20029;-82
2023/06/13 12:36:41;;;;;;;6.20;4.20;;;;;;;;;;5017217;28;20577;-83
2023/06/13 12:39:09;;;;;;;5.10;3.80;;;;;;;;;;5033679;28;20029;-82
2023/06/13 12:41:35;;;;;;;5.65;4.18;;;;;;;;;;5017040;28;20037;-83
2023/06/13 12:44:00;;;;;;;5.63;3.83;;;;;;;;;;5000680;28;20049;-82
2023/06/13 12:46:26;;;;;;;4.88;3.70;;;;;;;;;;5000643;28;20030;-81
2023/06/13 12:48:51;;;;;;;7.07;3.97;;;;;;;;;;5000761;28;20029;-84
2023/06/13 12:51:29;;;;;;;8.82;3.70;;;;;;;;;;5016720;28;20057;-81
2023/06/13 12:54:11;;;;;;;6.15;3.65;;;;;;;;;;5000579;28;20419;-81
2023/06/13 12:56:36;;;;;;;7.22;4.00;;;;;;;;;;5017242;28;20037;-82
2023/06/13 12:59:02;;;;;;;8.05;3.72;;;;;;;;;;5034298;28;20352;-81
2023/06/13 13:01:28;;;;;;;6.53;4.18;;;;;;;;;;5034232;28;20374;-81
2023/06/13 13:03:53;;;;;;;7.22;4.07;;;;;;;;;;5016795;28;20036;-82
2023/06/13 13:06:19;;;;;;;6.03;4.50;;;;;;;;;;5016510;28;20029;-83
2023/06/13 13:08:44;;;;;;;7.60;5.18;;;;;;;;;;5033728;28;20041;-82
2023/06/13 13:11:09;;;;;;;9.85;5.50;;;;;;;;;;5049555;28;20029;-82
2023/06/13 13:13:35;;;;;;;10.82;5.95;;;;;;;;;;5034067;28;20107;-81
2023/06/13 13:16:00;;;;;;;10.02;6.53;;;;;;;;;;5034023;28;20033;-81
2023/06/13 13:18:26;;;;;;;11.05;6.35;;;;;;;;;;5033994;28;20092;-83
2023/06/13 13:20:52;;;;;;;8.85;6.25;;;;;;;;;;5042926;28;20095;-82
2023/06/13 13:23:17;;;;;;;7.50;5.60;;;;;;;;;;5053576;28;20029;-81
2023/06/13 13:25:43;;;;;;;7.50;5.32;;;;;;;;;;5054117;28;20017;-82
2023/06/13 13:28:08;;;;;;;6.97;5.28;;;;;;;;;;5019582;28;20429;-82
2023/06/13 13:30:35;;;;;;;7.07;5.40;;;;;;;;;;5054366;28;20032;-81
2023/06/13 13:33:00;;;;;;;7.38;5.68;;;;;;;;;;5036016;28;20024;-82
2023/06/13 13:35:26;;;;;;;8.63;5.35;;;;;;;;;;5053705;28;20031;-82
2023/06/13 13:37:51;;;;;;;12.55;5.63;;;;;;;;;;5035638;28;20036;-82
2023/06/13 13:40:17;;;;;;;8.70;5.75;;;;;;;;;;5035924;28;20083;-82
2023/06/13 13:42:42;;;;;;;9.88;5.50;;;;;;;;;;5035625;28;20550;-82
2023/06/13 13:45:08;;;;;;;12.40;5.75;;;;;;;;;;5035832;28;20056;-81
2023/06/13 13:47:33;;;;;;;8.85;5.40;;;;;;;;;;5019800;28;20044;-82
2023/06/13 13:49:59;;;;;;;10.45;6.07;;;;;;;;;;5035933;28;20029;-82
2023/06/13 13:52:25;;;;;;;8.32;5.43;;;;;;;;;;5035540;28;20076;-81
2023/06/13 13:54:51;;;;;;;9.15;5.35;;;;;;;;;;5035800;28;20370;-82
2023/06/13 13:57:17;;;;;;;9.90;5.82;;;;;;;;;;5053496;28;20078;-82
2023/06/13 13:59:44;;;;;;;9.35;5.57;;;;;;;;;;5035704;28;20434;-84
2023/06/13 14:02:10;;;;;;;9.48;5.65;;;;;;;;;;5068766;28;20041;-83
2023/06/13 14:04:35;;;;;;;6.82;5.18;;;;;;;;;;5035654;28;20366;-82
2023/06/13 14:07:00;;;;;;;7.75;5.05;;;;;;;;;;5053137;28;20037;-82
2023/06/13 14:09:26;;;;;;;13.38;5.47;;;;;;;;;;5053410;28;20032;-81
2023/06/13 14:11:51;;;;;;;6.55;5.25;;;;;;;;;;5053433;28;20099;-83
2023/06/13 14:14:18;;;;;;;8.73;4.97;;;;;;;;;;5053255;28;20024;-82
2023/06/13 14:16:44;;;;;;;8.38;4.70;;;;;;;;;;5053320;28;20032;-83
2023/06/13 14:19:09;;;;;;;6.63;4.47;;;;;;;;;;5052126;28;20041;-83
2023/06/13 14:21:35;;;;;;;6.80;5.30;;;;;;;;;;5033734;28;20029;-83
2023/06/13 14:24:00;;;;;;;6.00;4.20;;;;;;;;;;5035166;28;20456;-84
2023/06/13 14:26:27;;;;;;;8.45;4.78;;;;;;;;;;5035593;28;20061;-82
2023/06/13 14:28:52;;;;;;;7.80;4.40;;;;;;;;;;5035632;28;20362;-82
2023/06/13 14:31:18;;;;;;;9.82;4.45;;;;;;;;;;5035481;28;20028;-81